Terminal Aerodrome Forecast
Issued by NWS

Home | Current Version | Previous Version | Text Only | Print | Product List | Glossary On
Versions: 1 2 3 4 5 6 7 8 9 10 11 12 13
000
FTAK31 PAFA 191120
TAFAOM
TAF
PAOM 191120Z 1912/2012 35008KT P6SM VCSH BKN050 BKN100
     FM191600 06009KT P6SM SCT050 BKN120
     FM200000 09010KT P6SM SCT080=

USA.gov is the U.S. government's official web portal to all federal, state and local government web resources and services.